createdAt,value
2022-12-03T00:05:02.993Z,98917.06
2022-12-03T00:10:28.044Z,98904.78
2022-12-03T00:15:56.053Z,98914.41
2022-12-03T00:21:21.077Z,98907.34
2022-12-03T00:26:46.000Z,98905.63
2022-12-03T00:32:13.002Z,98895.13
2022-12-03T00:37:38.025Z,98902.97
2022-12-03T00:43:02.009Z,98904.78
2022-12-03T00:48:29.996Z,98908.25
2022-12-03T00:53:53.995Z,98900.41
2022-12-03T00:59:19.080Z,98903.91
2022-12-03T01:04:46.052Z,98906.53
2022-12-03T01:10:11.024Z,98896.84
2022-12-03T01:15:35.045Z,98904.78
2022-12-03T01:21:02.995Z,98909.13
2022-12-03T01:26:27.156Z,98910.91
2022-12-03T01:32:04.024Z,98908.22
2022-12-03T01:37:32.102Z,98908.22
2022-12-03T01:42:57.049Z,98909.91
2022-12-03T01:48:23.174Z,98898.56
2022-12-03T01:53:51.034Z,98899.41
2022-12-03T01:59:15.010Z,98888.00
2022-12-03T02:04:40.023Z,98896.78
2022-12-03T02:10:07.024Z,98893.28
2022-12-03T02:15:32.065Z,98904.69
2022-12-03T02:21:02.054Z,98901.25
2022-12-03T02:26:30.063Z,98905.56
2022-12-03T02:31:54.142Z,98902.13
2022-12-03T02:37:22.057Z,98902.13
2022-12-03T02:42:49.069Z,98902.19
2022-12-03T02:48:19.215Z,98902.28
2022-12-03T02:53:49.081Z,98902.28
2022-12-03T02:59:17.068Z,98900.56
2022-12-03T03:04:41.061Z,98899.72
2022-12-03T03:10:06.095Z,98898.84
2022-12-03T03:15:34.068Z,98901.63
2022-12-03T03:20:59.057Z,98908.69
2022-12-03T03:26:26.132Z,98896.41
2022-12-03T03:31:56.137Z,98898.22
2022-12-03T03:37:20.073Z,98897.47
2022-12-03T03:42:46.079Z,98888.72
2022-12-03T03:48:14.056Z,98892.28
2022-12-03T03:53:40.178Z,98892.13
2022-12-03T03:59:04.272Z,98894.81
2022-12-03T04:04:40.183Z,98892.28
2022-12-03T04:10:05.141Z,98899.34
2022-12-03T04:15:29.068Z,98892.34
2022-12-03T04:20:57.094Z,98894.91
2022-12-03T04:26:35.209Z,98888.91
2022-12-03T04:32:13.142Z,98886.28
2022-12-03T04:37:40.196Z,98884.47
2022-12-03T04:43:05.070Z,98888.91
2022-12-03T04:48:29.078Z,98891.56
2022-12-03T04:53:59.075Z,98881.84
2022-12-03T04:59:24.102Z,98889.75
2022-12-03T05:04:49.177Z,98886.28
2022-12-03T05:10:16.103Z,98891.47
2022-12-03T05:15:41.076Z,98888.06
2022-12-03T05:21:05.119Z,98882.00
2022-12-03T05:26:33.119Z,98881.94
2022-12-03T05:31:57.105Z,98884.66
2022-12-03T05:37:22.127Z,98877.56
2022-12-03T05:43:02.209Z,98878.41
2022-12-03T05:48:27.118Z,98879.38
2022-12-03T05:53:51.125Z,98881.13
2022-12-03T05:59:19.126Z,98868.81
2022-12-03T06:04:50.143Z,98871.44
2022-12-03T06:10:18.108Z,98874.00
2022-12-03T06:15:45.176Z,98874.84
2022-12-03T06:21:10.161Z,98871.38
2022-12-03T06:26:34.206Z,98877.50
2022-12-03T06:32:02.135Z,98884.47
2022-12-03T06:37:26.119Z,98886.28
2022-12-03T06:42:51.139Z,98892.41
2022-12-03T06:48:18.143Z,98886.19
2022-12-03T06:53:43.139Z,98880.91
2022-12-03T06:59:07.132Z,98885.34
2022-12-03T07:04:46.084Z,98893.13
2022-12-03T07:10:11.147Z,98888.56
2022-12-03T07:15:35.132Z,98886.78
2022-12-03T07:21:03.166Z,98875.41
2022-12-03T07:26:27.163Z,98872.88
2022-12-03T07:37:46.158Z,98866.72
2022-12-03T07:43:12.271Z,98871.84
2022-12-03T07:48:36.160Z,98865.56
2022-12-03T07:54:04.164Z,98865.50
2022-12-03T07:59:28.201Z,98865.38
2022-12-03T08:04:59.152Z,98865.31
2022-12-03T08:10:27.222Z,98866.09
2022-12-03T08:15:53.284Z,98870.44
2022-12-03T08:21:21.144Z,98868.72
2022-12-03T08:26:48.151Z,98866.22
2022-12-03T08:32:16.336Z,98867.00
2022-12-03T08:37:41.216Z,98861.66
2022-12-03T08:43:09.186Z,98872.91
2022-12-03T08:48:48.633Z,98882.41
2022-12-03T08:54:21.169Z,98872.44
2022-12-03T08:59:48.192Z,98885.28
2022-12-03T09:05:24.212Z,98891.97
2022-12-03T09:10:50.177Z,98893.53
2022-12-03T09:16:18.233Z,98893.31
2022-12-03T09:21:43.165Z,98883.44
2022-12-03T09:27:08.188Z,98885.81
2022-12-03T09:32:35.237Z,98882.25
2022-12-03T09:38:00.202Z,98871.59
2022-12-03T09:43:24.549Z,98868.72
2022-12-03T09:48:57.197Z,98863.34
2022-12-03T09:54:23.204Z,98868.34
2022-12-03T09:59:48.203Z,98846.97
2022-12-03T10:05:15.255Z,98838.78
2022-12-03T10:10:40.224Z,98829.00
2022-12-03T10:16:04.245Z,98827.69
2022-12-03T10:21:35.283Z,98820.44
2022-12-03T10:26:55.221Z,98819.28
2022-12-03T10:32:22.199Z,98818.09
2022-12-03T10:38:06.249Z,98807.44
2022-12-03T10:43:40.233Z,98808.06
2022-12-03T10:49:19.226Z,98798.41
2022-12-03T10:54:49.212Z,98792.88
2022-12-03T11:00:15.221Z,98790.91
2022-12-03T11:05:44.611Z,98790.22
2022-12-03T11:11:14.237Z,98776.75
2022-12-03T11:17:08.253Z,98767.03
2022-12-03T11:22:48.224Z,98762.44
2022-12-03T11:28:42.227Z,98767.38
2022-12-03T11:34:57.250Z,98758.19
2022-12-03T11:40:45.259Z,98765.47
2022-12-03T11:46:18.254Z,98748.81
2022-12-03T11:51:46.226Z,98754.38
2022-12-03T11:57:12.230Z,98753.44
2022-12-03T12:02:36.258Z,98753.34
2022-12-03T12:08:11.269Z,98741.72
2022-12-03T12:14:01.254Z,98739.16
2022-12-03T12:19:54.510Z,98733.78
2022-12-03T12:25:54.452Z,98715.09
2022-12-03T12:31:18.260Z,98704.38
2022-12-03T12:36:43.250Z,98711.13
2022-12-03T12:42:10.273Z,98711.91
2022-12-03T12:47:35.415Z,98699.03
2022-12-03T12:53:01.286Z,98693.72
2022-12-03T12:58:34.289Z,98677.34
2022-12-03T13:04:06.332Z,98685.94
2022-12-03T13:09:33.264Z,98685.38
2022-12-03T13:15:01.278Z,98684.78
2022-12-03T13:20:30.289Z,98665.47
2022-12-03T13:26:06.589Z,98665.22
2022-12-03T13:31:46.466Z,98676.06
2022-12-03T13:37:11.303Z,98677.34
2022-12-03T13:42:49.254Z,98708.16
2022-12-03T13:48:17.261Z,98703.09
2022-12-03T13:53:45.292Z,98712.06
2022-12-03T13:59:11.289Z,98699.09
2022-12-03T14:04:45.285Z,98698.47
2022-12-03T14:10:10.286Z,98695.81
2022-12-03T14:15:35.307Z,98705.81
2022-12-03T14:21:04.301Z,98704.88
2022-12-03T14:26:28.366Z,98708.47
2022-12-03T14:31:53.310Z,98705.03
2022-12-03T14:37:20.335Z,98695.50
2022-12-03T14:42:45.299Z,98703.81
2022-12-03T14:48:09.349Z,98700.56
2022-12-03T14:53:37.301Z,98709.59
2022-12-03T14:59:02.295Z,98721.19
2022-12-03T15:04:27.326Z,98706.50
2022-12-03T15:09:54.561Z,98713.69
2022-12-03T15:15:20.345Z,98724.41
2022-12-03T15:20:45.316Z,98728.91
2022-12-03T15:26:13.316Z,98720.19
2022-12-03T15:31:37.349Z,98721.31
2022-12-03T15:37:02.361Z,98727.44
2022-12-03T15:42:29.318Z,98728.47
2022-12-03T15:47:54.345Z,98734.53
2022-12-03T15:53:18.297Z,98728.47
2022-12-03T15:58:46.304Z,98732.03
2022-12-03T16:04:10.338Z,98727.59
2022-12-03T16:09:35.326Z,98735.63
2022-12-03T16:15:02.328Z,98729.44
2022-12-03T16:20:27.357Z,98726.91
2022-12-03T16:25:52.328Z,98718.97
2022-12-03T16:31:20.408Z,98717.19
2022-12-03T16:36:44.333Z,98716.47
2022-12-03T16:42:17.578Z,98726.91
2022-12-03T16:47:44.365Z,98730.63
2022-12-03T16:53:09.354Z,98735.91
2022-12-03T16:58:34.357Z,98735.06
2022-12-03T17:04:02.344Z,98728.84
2022-12-03T17:09:26.431Z,98718.38
2022-12-03T17:14:51.337Z,98726.31
2022-12-03T17:20:21.369Z,98735.91
2022-12-03T17:25:46.353Z,98727.06
2022-12-03T17:31:10.392Z,98724.34
2022-12-03T17:36:38.361Z,98719.13
2022-12-03T17:42:02.376Z,98712.91
2022-12-03T17:47:27.365Z,98701.41
2022-12-03T17:52:54.463Z,98698.75
2022-12-03T17:58:19.399Z,98701.41
2022-12-03T18:03:43.447Z,98701.34
2022-12-03T18:09:11.361Z,98701.41
2022-12-03T18:14:35.480Z,98702.28
2022-12-03T18:20:00.366Z,98707.47
2022-12-03T18:25:28.378Z,98704.81
2022-12-03T18:30:53.389Z,98703.03
2022-12-03T18:36:17.379Z,98700.38
2022-12-03T18:41:45.374Z,98701.25
2022-12-03T18:47:09.575Z,98695.19
2022-12-03T18:52:34.395Z,98696.06
2022-12-03T18:58:01.400Z,98694.34
2022-12-03T19:03:26.435Z,98685.53
2022-12-03T19:08:50.366Z,98694.50
2022-12-03T19:14:18.372Z,98693.63
2022-12-03T19:19:43.389Z,98691.75
2022-12-03T19:25:08.412Z,98685.53
2022-12-03T19:30:35.421Z,98685.47
2022-12-03T19:36:00.467Z,98678.38
2022-12-03T19:41:26.450Z,98687.88
2022-12-03T19:46:54.409Z,98685.06
2022-12-03T19:52:19.429Z,98692.84
2022-12-03T19:57:44.397Z,98694.38
2022-12-03T20:03:11.491Z,98684.59
2022-12-03T20:08:36.411Z,98693.91
2022-12-03T20:14:02.392Z,98685.88
2022-12-03T20:19:30.402Z,98695.50
2022-12-03T20:24:54.399Z,98691.09
2022-12-03T20:30:20.399Z,98691.88
2022-12-03T20:35:54.433Z,98690.84
2022-12-03T20:41:21.426Z,98695.28
2022-12-03T20:46:46.441Z,98682.81
2022-12-03T20:52:14.506Z,98687.97
2022-12-03T20:57:38.454Z,98680.97
2022-12-03T21:03:04.472Z,98674.72
2022-12-03T21:08:41.029Z,98678.31
2022-12-03T21:14:07.523Z,98664.16
2022-12-03T21:19:32.462Z,98674.63
2022-12-03T21:25:00.446Z,98679.88
2022-12-03T21:30:25.472Z,98671.84
2022-12-03T21:35:50.441Z,98673.66
2022-12-03T21:41:18.433Z,98667.31
2022-12-03T21:47:09.508Z,98677.75
2022-12-03T21:52:27.491Z,98668.63
2022-12-03T21:57:55.443Z,98679.94
2022-12-03T22:03:26.450Z,98668.38
2022-12-03T22:08:51.521Z,98667.59
2022-12-03T22:14:19.504Z,98666.66
2022-12-03T22:19:46.471Z,98661.69
2022-12-03T22:25:10.465Z,98658.81
2022-12-03T22:30:38.503Z,98667.44
2022-12-03T22:36:16.426Z,98655.03
2022-12-03T22:41:45.480Z,98653.34
2022-12-03T22:47:12.476Z,98644.19
2022-12-03T22:52:37.539Z,98650.25
2022-12-03T22:58:01.466Z,98637.28
2022-12-03T23:03:37.584Z,98634.75
2022-12-03T23:09:02.454Z,98619.88
2022-12-03T23:14:26.458Z,98607.69
2022-12-03T23:19:54.790Z,98617.31
2022-12-03T23:25:19.592Z,98608.53
2022-12-03T23:30:45.514Z,98611.09
2022-12-03T23:36:12.502Z,98597.88
2022-12-03T23:41:37.467Z,98602.31
2022-12-03T23:47:01.611Z,98601.28
2022-12-03T23:52:29.498Z,98598.53
2022-12-03T23:57:53.480Z,98601.13
